Time;durP1;ratioP1;P1;durP2;ratioP2;P2;SDS_P1;SDS_P2;PMS_P1;PMS_P2;Temp;Humidity;BMP_temperature;BMP_pressure;BME280_temperature;BME280_humidity;BME280_pressure;Samples;Min_cycle;Max_cycle;Signal;HPM_P1;HPM_P2
2023/03/03 00:01:54;;;;;;;42.72;20.85;;;2.10;99.90;;;;;;5052686;28;20204;-45
2023/03/03 00:04:19;;;;;;;37.42;21.17;;;2.00;99.90;;;;;;5052472;28;20190;-45
2023/03/03 00:06:45;;;;;;;37.10;19.45;;;2.10;99.90;;;;;;5052512;28;20293;-43
2023/03/03 00:09:10;;;;;;;39.58;22.02;;;2.00;99.90;;;;;;5053002;28;20171;-46
2023/03/03 00:11:36;;;;;;;40.25;21.15;;;2.00;99.90;;;;;;5052063;28;20182;-43
2023/03/03 00:14:01;;;;;;;42.33;23.33;;;2.00;99.90;;;;;;5052415;28;20167;-44
2023/03/03 00:16:30;;;;;;;42.83;20.92;;;2.00;99.90;;;;;;5052319;28;20210;-43
2023/03/03 00:18:56;;;;;;;42.90;22.85;;;2.00;99.90;;;;;;5050847;28;20165;-45
2023/03/03 00:21:39;;;;;;;40.90;22.23;;;2.00;99.90;;;;;;5052249;28;20216;-45
2023/03/03 00:24:07;;;;;;;43.97;21.55;;;2.00;99.90;;;;;;5052265;28;20186;-45
2023/03/03 00:26:37;;;;;;;39.90;22.30;;;2.00;99.90;;;;;;5051660;28;20600;-43
2023/03/03 00:29:27;;;;;;;42.17;22.38;;;1.90;99.90;;;;;;5052008;28;20213;-44
2023/03/03 00:31:53;;;;;;;41.78;22.10;;;1.90;99.90;;;;;;5052446;28;20166;-43
2023/03/03 00:34:26;;;;;;;41.03;22.65;;;2.00;99.90;;;;;;5050394;28;20175;-44
2023/03/03 00:36:54;;;;;;;41.40;21.77;;;2.00;99.90;;;;;;5052097;28;20642;-44
2023/03/03 00:39:38;;;;;;;43.92;24.40;;;1.90;99.90;;;;;;5052379;28;20269;-43
2023/03/03 00:42:17;;;;;;;42.42;23.50;;;1.80;99.90;;;;;;5052175;28;20188;-42
2023/03/03 00:44:55;;;;;;;45.40;23.38;;;1.90;99.90;;;;;;5052229;28;20216;-43
2023/03/03 00:47:43;;;;;;;47.42;22.65;;;1.90;99.90;;;;;;5051771;28;20210;-42
2023/03/03 00:50:09;;;;;;;48.65;23.85;;;1.90;99.90;;;;;;5052241;28;20241;-42
2023/03/03 00:52:37;;;;;;;41.22;22.52;;;1.80;99.90;;;;;;5051823;28;20247;-43
2023/03/03 00:55:04;;;;;;;43.53;23.25;;;1.70;99.90;;;;;;5051747;28;20500;-43
2023/03/03 00:57:30;;;;;;;50.55;23.98;;;1.60;99.90;;;;;;5051974;28;20213;-44
2023/03/03 00:59:55;;;;;;;49.33;24.92;;;1.60;99.90;;;;;;5051993;28;20174;-45
2023/03/03 01:02:21;;;;;;;48.13;23.92;;;1.70;99.90;;;;;;5051581;28;20224;-43
2023/03/03 01:04:50;;;;;;;47.55;23.70;;;1.60;99.90;;;;;;5050630;28;20249;-43
2023/03/03 01:07:16;;;;;;;50.60;23.63;;;1.60;99.90;;;;;;5051257;28;20725;-49
2023/03/03 01:09:41;;;;;;;40.42;23.00;;;1.60;99.90;;;;;;5051999;28;20254;-42
2023/03/03 01:12:07;;;;;;;42.20;22.25;;;1.60;99.90;;;;;;5050120;28;20268;-42
2023/03/03 01:14:33;;;;;;;44.33;24.73;;;1.50;99.90;;;;;;5051525;28;20162;-42
2023/03/03 01:16:58;;;;;;;48.13;24.08;;;1.50;99.90;;;;;;5051531;28;20170;-42
2023/03/03 01:19:24;;;;;;;47.50;25.47;;;1.50;99.90;;;;;;5051520;28;20657;-42
2023/03/03 01:21:50;;;;;;;48.60;25.15;;;1.50;99.90;;;;;;5051495;28;20171;-42
2023/03/03 01:24:16;;;;;;;50.05;25.90;;;1.50;99.90;;;;;;5051514;28;20163;-42
2023/03/03 01:26:41;;;;;;;54.72;25.38;;;1.50;99.90;;;;;;5051710;28;20213;-44
2023/03/03 01:29:07;;;;;;;54.58;24.05;;;1.40;99.90;;;;;;5051655;28;20181;-43
2023/03/03 01:31:32;;;;;;;48.42;24.77;;;1.40;99.90;;;;;;5051369;28;20574;-42
2023/03/03 01:33:58;;;;;;;55.50;24.95;;;1.40;99.90;;;;;;5051418;28;20167;-42
2023/03/03 01:36:25;;;;;;;49.63;24.30;;;1.40;99.90;;;;;;5051393;28;20166;-42
2023/03/03 01:38:51;;;;;;;43.95;21.13;;;1.30;99.90;;;;;;5053104;28;20239;-45
2023/03/03 01:41:17;;;;;;;51.10;22.80;;;1.30;99.90;;;;;;5055579;28;20179;-42
2023/03/03 01:43:45;;;;;;;44.17;22.60;;;1.30;99.90;;;;;;5055432;28;20635;-42
2023/03/03 01:46:37;;;;;;;53.83;25.80;;;1.40;99.90;;;;;;5055489;28;20252;-42
2023/03/03 01:49:11;;;;;;;52.85;24.58;;;1.30;99.90;;;;;;5053876;28;20174;-42
2023/03/03 01:51:44;;;;;;;52.75;22.60;;;1.40;99.90;;;;;;5055205;28;20170;-44
2023/03/03 01:54:18;;;;;;;54.60;24.70;;;1.40;99.90;;;;;;5055276;28;20194;-51
2023/03/03 01:56:43;;;;;;;50.63;22.77;;;1.50;99.90;;;;;;5055371;28;20249;-45
2023/03/03 01:59:18;;;;;;;46.53;21.90;;;1.50;99.90;;;;;;5055462;28;20266;-51
2023/03/03 02:01:46;;;;;;;44.13;17.83;;;1.50;99.90;;;;;;5054854;28;20178;-49
2023/03/03 02:04:13;;;;;;;49.80;21.23;;;1.50;99.90;;;;;;5055382;28;20181;-48
2023/03/03 02:06:44;;;;;;;42.47;20.92;;;1.50;99.90;;;;;;5054622;28;20238;-48
2023/03/03 02:09:34;;;;;;;49.47;23.15;;;1.60;99.90;;;;;;5054362;28;20512;-46
2023/03/03 02:12:04;;;;;;;53.65;24.27;;;1.60;99.90;;;;;;5054472;28;20239;-50
2023/03/03 02:14:30;;;;;;;50.38;23.98;;;1.60;99.90;;;;;;5054771;28;20691;-50
2023/03/03 02:16:56;;;;;;;49.88;24.42;;;1.60;99.90;;;;;;5053482;28;20170;-51
2023/03/03 02:20:01;;;;;;;48.45;24.88;;;1.60;99.90;;;;;;5054959;28;20224;-49
2023/03/03 02:22:44;;;;;;;49.63;24.08;;;1.60;99.90;;;;;;5054367;28;20181;-50
2023/03/03 02:25:17;;;;;;;55.75;23.98;;;1.60;99.90;;;;;;5054988;28;20210;-51
2023/03/03 02:27:42;;;;;;;48.50;23.00;;;1.70;99.90;;;;;;5054762;28;20214;-45
2023/03/03 02:30:16;;;;;;;41.08;19.73;;;1.60;99.90;;;;;;5054191;28;20162;-50
2023/03/03 02:32:42;;;;;;;42.70;20.85;;;1.70;99.90;;;;;;5054505;28;20179;-49
2023/03/03 02:35:28;;;;;;;51.95;22.95;;;1.60;99.90;;;;;;5054246;28;20634;-48
2023/03/03 02:37:58;;;;;;;45.58;22.20;;;1.60;99.90;;;;;;5054292;28;20714;-51
2023/03/03 02:40:27;;;;;;;46.97;22.83;;;1.50;99.90;;;;;;5054128;28;20228;-48
2023/03/03 02:42:54;;;;;;;57.47;25.08;;;1.70;99.90;;;;;;5054193;28;20208;-51
2023/03/03 02:45:20;;;;;;;45.90;21.40;;;1.70;99.90;;;;;;5054254;28;20249;-48
2023/03/03 02:47:50;;;;;;;50.67;24.38;;;1.70;99.90;;;;;;5054006;28;20646;-45
2023/03/03 02:50:16;;;;;;;52.03;25.95;;;1.70;99.90;;;;;;5052824;28;20253;-46
2023/03/03 02:52:41;;;;;;;52.20;25.63;;;1.70;99.90;;;;;;5054409;28;20261;-46
2023/03/03 02:55:07;;;;;;;51.88;24.00;;;1.70;99.90;;;;;;5053986;28;20173;-43
2023/03/03 02:57:33;;;;;;;51.28;24.48;;;1.60;99.90;;;;;;5053724;28;20178;-43
2023/03/03 02:59:58;;;;;;;53.45;24.58;;;1.70;99.90;;;;;;5053846;28;20174;-45
2023/03/03 03:02:26;;;;;;;42.85;19.58;;;1.50;99.90;;;;;;5052940;28;20182;-46
2023/03/03 03:04:51;;;;;;;57.25;25.00;;;1.60;99.90;;;;;;5053364;28;20230;-46
2023/03/03 03:07:17;;;;;;;43.78;19.75;;;1.70;99.90;;;;;;5052962;28;20669;-46
2023/03/03 03:09:42;;;;;;;57.00;26.45;;;1.70;99.90;;;;;;5053480;28;20159;-45
2023/03/03 03:12:08;;;;;;;56.20;25.40;;;1.80;99.90;;;;;;5053369;28;20631;-45
2023/03/03 03:14:34;;;;;;;57.10;24.95;;;1.80;99.90;;;;;;5053089;28;20170;-51
2023/03/03 03:17:00;;;;;;;43.92;20.20;;;1.80;99.90;;;;;;5052864;28;20175;-52
2023/03/03 03:19:27;;;;;;;56.10;26.10;;;1.70;99.90;;;;;;5053326;28;20171;-51
2023/03/03 03:21:52;;;;;;;62.10;26.50;;;1.70;99.90;;;;;;5053187;28;20171;-51
2023/03/03 03:24:18;;;;;;;58.22;26.95;;;1.80;99.90;;;;;;5053007;28;20649;-51
2023/03/03 03:26:43;;;;;;;67.85;29.83;;;1.70;99.90;;;;;;5052529;28;20582;-44
2023/03/03 03:29:09;;;;;;;52.40;24.95;;;1.80;99.90;;;;;;5053288;28;20256;-49
2023/03/03 03:31:35;;;;;;;43.75;19.50;;;1.80;99.90;;;;;;5053109;28;20182;-50
2023/03/03 03:34:01;;;;;;;59.92;26.45;;;1.70;99.90;;;;;;5052748;28;20505;-51
2023/03/03 03:36:27;;;;;;;60.25;26.38;;;1.70;99.90;;;;;;5052455;28;20186;-50
2023/03/03 03:38:53;;;;;;;60.33;26.70;;;-0.50;99.90;;;;;;5052482;28;20646;-51
2023/03/03 03:41:18;;;;;;;46.05;19.70;;;1.70;99.90;;;;;;5052579;28;20593;-51
2023/03/03 03:43:44;;;;;;;46.10;22.27;;;1.70;99.90;;;;;;5052578;28;20180;-50
2023/03/03 03:46:10;;;;;;;55.47;22.77;;;1.70;99.90;;;;;;5052474;28;20293;-51
2023/03/03 03:48:35;;;;;;;54.15;24.80;;;1.70;99.90;;;;;;5052219;28;20220;-51
2023/03/03 03:51:01;;;;;;;55.55;24.42;;;1.80;99.90;;;;;;5051034;28;20171;-42
2023/03/03 03:53:26;;;;;;;54.28;25.52;;;1.80;99.90;;;;;;5052138;28;20173;-42
2023/03/03 03:55:52;;;;;;;59.50;27.17;;;1.80;99.90;;;;;;5052100;28;20166;-43
2023/03/03 03:58:18;;;;;;;58.05;27.40;;;1.80;99.90;;;;;;5051016;28;20208;-42
2023/03/03 04:00:45;;;;;;;60.83;27.20;;;1.90;99.90;;;;;;5052227;28;20166;-42
2023/03/03 04:03:13;;;;;;;61.25;27.00;;;1.90;99.90;;;;;;5052885;28;20189;-42
2023/03/03 04:05:39;;;;;;;57.15;25.63;;;1.90;99.90;;;;;;5052010;28;20685;-42
2023/03/03 04:08:04;;;;;;;61.05;26.85;;;1.90;99.90;;;;;;5051703;28;20179;-42
2023/03/03 04:10:30;;;;;;;36.08;17.10;;;1.80;99.90;;;;;;5051879;28;20174;-42
2023/03/03 04:12:56;;;;;;;48.95;21.48;;;1.70;99.90;;;;;;5052114;28;20526;-42
2023/03/03 04:15:21;;;;;;;36.70;16.08;;;1.50;99.90;;;;;;5052074;28;20253;-43
2023/03/03 04:17:47;;;;;;;53.88;25.65;;;1.50;99.90;;;;;;5051638;28;20649;-42
2023/03/03 04:20:14;;;;;;;54.70;25.58;;;1.60;99.90;;;;;;5052213;28;20174;-42
2023/03/03 04:22:41;;;;;;;51.75;24.52;;;1.70;99.90;;;;;;5052535;28;20171;-42
2023/03/03 04:25:07;;;;;;;49.28;22.70;;;1.70;99.90;;;;;;5051593;28;20261;-42
2023/03/03 04:27:34;;;;;;;55.28;23.92;;;1.70;99.90;;;;;;5051603;28;20294;-42
2023/03/03 04:30:00;;;;;;;50.90;23.85;;;1.70;99.90;;;;;;5051883;28;20174;-43
2023/03/03 04:32:26;;;;;;;60.38;27.80;;;1.70;99.90;;;;;;5051573;28;20525;-43
2023/03/03 04:34:52;;;;;;;65.65;28.42;;;1.70;99.90;;;;;;5051283;28;20178;-41
2023/03/03 04:37:18;;;;;;;63.00;30.17;;;1.80;99.90;;;;;;5051398;28;20189;-43
2023/03/03 04:39:44;;;;;;;64.18;29.85;;;1.90;99.90;;;;;;5051500;28;20163;-41
2023/03/03 04:42:09;;;;;;;66.63;28.55;;;1.90;99.90;;;;;;5051894;28;20171;-43
2023/03/03 04:44:35;;;;;;;67.93;29.67;;;1.90;99.90;;;;;;5051104;28;20557;-51
2023/03/03 04:47:00;;;;;;;53.55;22.73;;;1.90;99.90;;;;;;5051210;28;20234;-51
2023/03/03 04:49:26;;;;;;;60.97;28.52;;;1.80;99.90;;;;;;5051393;28;20166;-51
2023/03/03 04:51:51;;;;;;;55.03;27.58;;;1.90;99.90;;;;;;5051259;28;20185;-51
2023/03/03 04:54:17;;;;;;;60.78;27.35;;;2.00;99.90;;;;;;5051117;28;20257;-52
2023/03/03 04:56:43;;;;;;;58.00;26.77;;;2.00;99.90;;;;;;5051991;28;20198;-51
2023/03/03 04:59:08;;;;;;;54.58;22.88;;;2.00;99.90;;;;;;5051582;28;20170;-50
2023/03/03 05:01:34;;;;;;;64.28;26.42;;;1.90;99.90;;;;;;5051186;28;20166;-47
2023/03/03 05:03:59;;;;;;;65.57;27.80;;;1.90;99.90;;;;;;5050896;28;20222;-50
2023/03/03 05:06:25;;;;;;;69.75;29.77;;;2.00;99.90;;;;;;5050853;28;20226;-51
2023/03/03 05:08:50;;;;;;;63.50;29.20;;;2.00;99.90;;;;;;5051374;28;20167;-51
2023/03/03 05:11:16;;;;;;;64.72;29.05;;;2.00;99.90;;;;;;5051084;28;20182;-50
2023/03/03 05:13:41;;;;;;;61.45;25.38;;;2.00;99.90;;;;;;5050744;28;20167;-51
2023/03/03 05:16:07;;;;;;;51.28;21.92;;;1.90;99.90;;;;;;5051168;28;20175;-51
2023/03/03 05:18:33;;;;;;;63.08;27.52;;;1.80;99.90;;;;;;5050909;28;20166;-50
2023/03/03 05:20:59;;;;;;;51.45;21.70;;;1.90;99.90;;;;;;5050902;28;20171;-51
2023/03/03 05:23:24;;;;;;;62.08;27.55;;;1.80;99.90;;;;;;5050916;28;20175;-51
2023/03/03 05:25:50;;;;;;;68.93;27.30;;;1.90;99.90;;;;;;5050684;28;20185;-44
2023/03/03 05:28:17;;;;;;;52.88;24.23;;;1.80;99.90;;;;;;5051057;28;20185;-44
2023/03/03 05:30:43;;;;;;;68.57;28.45;;;1.90;99.90;;;;;;5051255;28;20190;-46
2023/03/03 05:33:13;;;;;;;68.80;28.88;;;1.90;99.90;;;;;;5051105;28;20170;-44
2023/03/03 05:35:39;;;;;;;59.45;26.75;;;1.90;99.90;;;;;;5050954;28;20202;-43
2023/03/03 05:38:04;;;;;;;62.47;29.15;;;2.00;99.90;;;;;;5050797;28;20602;-46
2023/03/03 05:40:30;;;;;;;63.20;26.25;;;2.00;99.90;;;;;;5051149;28;20261;-43
2023/03/03 05:42:56;;;;;;;54.33;25.63;;;2.00;99.90;;;;;;5050922;28;20638;-44
2023/03/03 05:45:23;;;;;;;31.88;14.15;;;1.80;99.90;;;;;;5050516;28;20174;-48
2023/03/03 05:47:49;;;;;;;55.78;25.30;;;1.80;99.90;;;;;;5050919;28;20210;-43
2023/03/03 05:50:15;;;;;;;48.38;23.17;;;1.80;99.90;;;;;;5050749;28;20171;-45
2023/03/03 05:52:41;;;;;;;53.58;22.50;;;1.70;99.90;;;;;;5050747;28;20194;-43
2023/03/03 05:55:08;;;;;;;63.05;26.10;;;1.70;99.90;;;;;;5050394;28;20272;-45
2023/03/03 05:57:34;;;;;;;53.80;24.27;;;1.90;99.90;;;;;;5050577;28;20167;-44
2023/03/03 06:00:04;;;;;;;61.05;26.55;;;1.90;99.90;;;;;;5050796;28;20228;-42
2023/03/03 06:02:30;;;;;;;54.30;23.27;;;1.80;99.90;;;;;;5050676;28;20610;-44
2023/03/03 06:04:56;;;;;;;58.20;26.20;;;1.80;99.90;;;;;;5050201;28;20258;-42
2023/03/03 06:07:21;;;;;;;47.45;18.67;;;1.90;99.90;;;;;;5050027;28;20616;-47
2023/03/03 06:09:47;;;;;;;65.00;29.98;;;1.80;99.90;;;;;;5049894;28;20254;-42
2023/03/03 06:12:12;;;;;;;65.93;27.55;;;1.70;99.90;;;;;;5050190;28;20179;-42
2023/03/03 06:14:38;;;;;;;65.00;26.50;;;1.90;99.90;;;;;;5050768;28;20652;-44
2023/03/03 06:17:04;;;;;;;61.28;26.33;;;1.90;99.90;;;;;;5048953;28;20283;-44
2023/03/03 06:19:30;;;;;;;64.18;26.58;;;1.90;99.90;;;;;;5050531;28;20483;-45
2023/03/03 06:21:56;;;;;;;66.88;27.40;;;2.00;99.90;;;;;;5049898;28;20269;-43
2023/03/03 06:24:24;;;;;;;61.72;26.88;;;1.90;99.90;;;;;;5050384;28;20201;-44
2023/03/03 06:26:50;;;;;;;72.82;31.25;;;1.90;99.90;;;;;;5053316;28;20210;-43
2023/03/03 06:29:15;;;;;;;76.75;29.23;;;1.90;99.90;;;;;;5053754;28;20236;-44
2023/03/03 06:31:42;;;;;;;79.20;30.83;;;1.90;99.90;;;;;;5053676;28;20627;-46
2023/03/03 06:34:07;;;;;;;74.80;31.65;;;1.90;99.90;;;;;;5054119;28;20167;-48
2023/03/03 06:36:33;;;;;;;77.63;29.85;;;2.00;99.90;;;;;;5053376;28;20223;-45
2023/03/03 06:38:59;;;;;;;74.20;28.08;;;2.00;99.90;;;;;;5053389;28;20193;-44
2023/03/03 06:41:25;;;;;;;84.30;33.08;;;1.90;99.90;;;;;;5053159;28;20178;-45
2023/03/03 06:43:51;;;;;;;85.85;32.67;;;1.90;99.90;;;;;;5053325;28;20167;-50
2023/03/03 06:46:16;;;;;;;84.75;32.08;;;2.00;99.90;;;;;;5053516;28;20194;-50
2023/03/03 06:48:42;;;;;;;83.85;32.35;;;2.00;99.90;;;;;;5053842;28;20217;-42
2023/03/03 06:51:33;;;;;;;85.00;30.92;;;2.10;99.90;;;;;;5052604;28;20189;-44
2023/03/03 06:54:05;;;;;;;75.75;31.30;;;2.10;99.90;;;;;;5053385;28;20171;-43
2023/03/03 06:56:34;;;;;;;81.60;32.85;;;2.00;99.90;;;;;;5053139;28;20244;-43
2023/03/03 06:59:02;;;;;;;62.22;26.67;;;2.00;99.90;;;;;;5052985;28;20203;-42
2023/03/03 07:01:34;;;;;;;81.10;31.88;;;2.10;99.90;;;;;;5053668;28;20181;-42
2023/03/03 07:04:00;;;;;;;78.10;31.20;;;2.10;99.90;;;;;;5053386;28;20174;-42
2023/03/03 07:06:27;;;;;;;86.78;33.72;;;2.10;99.90;;;;;;5052676;28;20218;-43
2023/03/03 07:08:53;;;;;;;81.25;32.78;;;2.10;99.90;;;;;;5053360;28;20179;-43
2023/03/03 07:11:22;;;;;;;83.63;32.40;;;2.20;99.90;;;;;;5053297;28;20353;-43
2023/03/03 07:13:50;;;;;;;87.97;32.97;;;2.10;99.90;;;;;;5052916;28;20182;-44
2023/03/03 07:16:17;;;;;;;70.97;27.52;;;2.10;99.90;;;;;;5053113;28;20166;-51
2023/03/03 07:18:52;;;;;;;87.20;31.40;;;2.00;99.90;;;;;;5053076;28;20682;-51
2023/03/03 07:21:21;;;;;;;82.82;30.65;;;2.10;99.90;;;;;;5052981;28;20198;-51
2023/03/03 07:23:51;;;;;;;81.85;32.03;;;2.00;99.90;;;;;;5051183;28;20224;-46
2023/03/03 07:26:19;;;;;;;81.90;31.83;;;2.10;99.90;;;;;;5050863;28;20202;-51
2023/03/03 07:28:55;;;;;;;79.65;29.05;;;2.20;99.90;;;;;;5050970;28;20626;-42
2023/03/03 07:31:38;;;;;;;79.35;30.73;;;2.10;99.90;;;;;;5051328;28;20174;-49
2023/03/03 07:34:20;;;;;;;85.43;31.77;;;2.10;99.90;;;;;;5051011;28;20206;-44
2023/03/03 07:36:45;;;;;;;72.15;28.05;;;2.10;99.90;;;;;;5050904;28;20658;-44
2023/03/03 07:39:30;;;;;;;72.20;28.80;;;2.10;99.90;;;;;;5051472;28;20159;-44
2023/03/03 07:42:11;;;;;;;76.18;28.98;;;2.20;99.90;;;;;;5050808;28;20664;-47
2023/03/03 07:44:37;;;;;;;70.40;29.65;;;2.20;99.90;;;;;;5050969;28;20527;-45
2023/03/03 07:47:29;;;;;;;87.20;30.10;;;2.10;99.90;;;;;;5051136;28;20225;-45
2023/03/03 07:49:58;;;;;;;74.68;28.45;;;2.10;99.90;;;;;;5050549;28;20178;-46
2023/03/03 07:52:38;;;;;;;75.43;29.42;;;2.20;99.90;;;;;;5050490;28;20170;-47
2023/03/03 07:55:34;;;;;;;67.85;27.17;;;2.20;99.90;;;;;;5050552;28;20714;-51
2023/03/03 07:58:14;;;;;;;74.45;29.63;;;2.10;99.90;;;;;;5050168;28;20539;-43
2023/03/03 08:01:01;;;;;;;76.50;29.77;;;2.20;99.90;;;;;;5051041;28;20182;-46
2023/03/03 08:03:26;;;;;;;69.15;28.25;;;2.40;99.90;;;;;;5050638;28;20692;-48
2023/03/03 08:05:52;;;;;;;70.20;27.88;;;2.40;99.90;;;;;;5050086;28;20223;-44
2023/03/03 08:08:41;;;;;;;70.28;28.15;;;2.40;99.90;;;;;;5049161;28;20194;-42
2023/03/03 08:11:08;;;;;;;66.38;26.35;;;2.40;99.90;;;;;;5050322;28;20256;-44
2023/03/03 08:13:34;;;;;;;68.72;28.88;;;2.30;99.90;;;;;;5050167;28;20190;-43
2023/03/03 08:16:08;;;;;;;77.20;27.35;;;2.40;99.90;;;;;;5050500;28;20209;-43
2023/03/03 08:18:37;;;;;;;69.15;28.30;;;2.40;99.90;;;;;;5050276;28;20173;-43
2023/03/03 08:21:18;;;;;;;70.35;27.30;;;2.40;99.90;;;;;;5050398;28;20220;-42
2023/03/03 08:23:44;;;;;;;68.82;29.27;;;2.50;99.90;;;;;;5050214;28;20294;-43
2023/03/03 08:26:12;;;;;;;67.15;28.83;;;2.40;99.90;;;;;;5050540;28;20320;-50
2023/03/03 08:28:38;;;;;;;66.35;26.75;;;2.50;99.90;;;;;;5050804;28;20196;-49
2023/03/03 08:31:04;;;;;;;69.10;26.10;;;2.60;99.90;;;;;;5049997;28;20245;-46
2023/03/03 08:33:29;;;;;;;70.85;27.50;;;2.60;99.90;;;;;;5049845;28;20228;-51
2023/03/03 08:35:55;;;;;;;68.68;26.80;;;2.70;99.90;;;;;;5050160;28;20171;-43
2023/03/03 08:38:21;;;;;;;62.17;26.90;;;2.70;99.90;;;;;;5049956;28;20183;-46
2023/03/03 08:40:47;;;;;;;64.05;26.70;;;2.60;99.90;;;;;;5050036;28;20274;-44
2023/03/03 08:43:16;;;;;;;65.60;28.52;;;2.70;99.90;;;;;;5048592;28;20274;-45
2023/03/03 08:45:43;;;;;;;61.75;24.95;;;2.80;99.90;;;;;;5050274;28;20217;-50
2023/03/03 08:48:09;;;;;;;64.70;27.33;;;2.80;99.90;;;;;;5049669;28;20210;-46
2023/03/03 08:50:37;;;;;;;64.15;27.38;;;2.80;99.90;;;;;;5049693;28;20599;-43
2023/03/03 08:53:03;;;;;;;58.30;26.35;;;2.80;99.90;;;;;;5050400;28;20240;-51
2023/03/03 08:55:29;;;;;;;61.40;25.20;;;2.90;99.90;;;;;;5049707;28;20178;-47
2023/03/03 08:57:55;;;;;;;60.35;23.88;;;2.80;99.90;;;;;;5050758;28;20169;-46
2023/03/03 09:00:20;;;;;;;58.25;23.95;;;2.90;99.90;;;;;;5051292;28;20174;-43
2023/03/03 09:02:48;;;;;;;61.35;25.63;;;2.90;99.90;;;;;;5051205;28;20216;-43
2023/03/03 09:05:14;;;;;;;55.63;24.30;;;2.90;99.90;;;;;;5050800;28;20202;-43
2023/03/03 09:07:40;;;;;;;60.83;23.90;;;2.90;99.90;;;;;;5049879;28;20202;-43
2023/03/03 09:10:09;;;;;;;53.08;22.35;;;3.00;99.90;;;;;;5051469;28;20629;-43
2023/03/03 09:12:47;;;;;;;57.72;24.00;;;3.10;99.90;;;;;;5051332;28;20232;-43
2023/03/03 09:15:23;;;;;;;56.47;25.55;;;3.00;99.90;;;;;;5050938;28;20185;-43
2023/03/03 09:17:49;;;;;;;58.63;24.60;;;3.00;99.90;;;;;;5050775;28;20251;-43
2023/03/03 09:20:36;;;;;;;55.90;25.77;;;3.00;99.90;;;;;;5050972;28;20189;-44
2023/03/03 09:23:20;;;;;;;59.60;25.15;;;3.00;99.90;;;;;;5050985;28;20310;-42
2023/03/03 09:25:47;;;;;;;49.08;22.92;;;3.00;99.90;;;;;;5051095;28;20169;-42
2023/03/03 09:28:24;;;;;;;54.35;23.02;;;3.00;99.90;;;;;;5049619;28;20241;-42
2023/03/03 09:30:51;;;;;;;57.83;23.20;;;3.00;99.90;;;;;;5051195;28;20614;-43
2023/03/03 09:33:42;;;;;;;47.55;22.27;;;3.10;99.90;;;;;;5050490;28;20218;-43
2023/03/03 09:36:18;;;;;;;57.50;22.38;;;3.20;99.90;;;;;;5049864;28;20178;-44
2023/03/03 09:38:44;;;;;;;44.65;19.23;;;3.00;99.90;;;;;;5050907;28;20212;-43
2023/03/03 09:41:16;;;;;;;45.90;21.25;;;3.10;99.90;;;;;;5051348;28;20240;-42
2023/03/03 09:44:02;;;;;;;49.75;19.73;;;3.10;99.90;;;;;;5050769;28;20183;-43
2023/03/03 09:47:02;;;;;;;41.20;18.92;;;3.20;99.90;;;;;;5049410;28;20198;-43
2023/03/03 09:49:43;;;;;;;47.10;21.65;;;3.20;99.90;;;;;;5034703;28;20186;-42
2023/03/03 09:52:26;;;;;;;54.03;22.98;;;3.30;99.90;;;;;;5051129;28;20166;-42
2023/03/03 09:55:00;;;;;;;51.55;22.25;;;3.30;99.90;;;;;;5031034;28;20183;-42
2023/03/03 09:58:04;;;;;;;43.40;21.25;;;3.30;99.90;;;;;;5031158;28;20167;-42
2023/03/03 10:01:07;;;;;;;42.83;18.25;;;3.40;99.90;;;;;;5033330;28;20167;-43
2023/03/03 10:03:51;;;;;;;44.05;20.77;;;3.40;99.90;;;;;;5045399;28;20198;-43
2023/03/03 10:06:24;;;;;;;42.42;19.40;;;3.50;99.90;;;;;;5054217;28;20219;-43
2023/03/03 10:09:13;;;;;;;44.42;19.00;;;3.50;99.90;;;;;;5054409;28;20181;-44
2023/03/03 10:11:50;;;;;;;51.90;22.45;;;3.60;99.90;;;;;;5054815;28;20159;-42
2023/03/03 10:14:38;;;;;;;54.50;25.08;;;3.50;99.90;;;;;;5053836;28;20241;-42
2023/03/03 10:17:41;;;;;;;50.50;21.60;;;3.50;99.90;;;;;;5054315;28;20627;-43
2023/03/03 10:20:48;;;;;;;46.67;21.35;;;3.60;99.90;;;;;;5054542;28;20261;-43
2023/03/03 10:23:20;;;;;;;43.08;18.27;;;3.60;99.90;;;;;;5053986;28;20183;-43
2023/03/03 10:25:57;;;;;;;45.63;19.33;;;3.70;99.90;;;;;;5054144;28;20252;-43
2023/03/03 10:28:34;;;;;;;50.20;20.60;;;3.50;99.90;;;;;;5053966;28;20210;-44
2023/03/03 10:31:19;;;;;;;45.03;18.70;;;3.60;99.90;;;;;;5053944;28;20162;-44
2023/03/03 10:34:05;;;;;;;46.60;21.48;;;3.60;99.90;;;;;;5053776;28;20630;-45
2023/03/03 10:36:40;;;;;;;38.28;18.88;;;3.80;99.90;;;;;;5053791;28;20178;-43
2023/03/03 10:39:39;;;;;;;43.95;20.45;;;3.90;99.90;;;;;;5053936;28;20173;-42
2023/03/03 10:42:19;;;;;;;46.13;19.63;;;3.80;99.90;;;;;;5053838;28;20212;-46
2023/03/03 10:45:00;;;;;;;49.17;21.08;;;3.80;99.90;;;;;;5053690;28;20190;-42
2023/03/03 10:47:52;;;;;;;50.60;22.67;;;3.70;99.90;;;;;;5053676;28;20198;-42
2023/03/03 10:51:06;;;;;;;50.45;22.20;;;3.80;99.90;;;;;;5053865;28;20186;-42
2023/03/03 10:53:58;;;;;;;45.58;21.00;;;3.90;99.90;;;;;;5047793;28;20210;-42
2023/03/03 10:56:41;;;;;;;49.50;21.75;;;3.90;99.90;;;;;;5053328;28;20257;-42
2023/03/03 10:59:35;;;;;;;45.78;21.17;;;3.90;99.90;;;;;;5052601;28;20205;-50
2023/03/03 11:02:23;;;;;;;47.25;20.52;;;4.10;99.90;;;;;;5053354;28;20170;-51
2023/03/03 11:05:30;;;;;;;48.83;21.70;;;4.10;99.90;;;;;;5053052;28;20210;-43
2023/03/03 11:08:06;;;;;;;49.67;22.02;;;4.10;99.90;;;;;;5053131;28;20218;-48
2023/03/03 11:10:50;;;;;;;46.20;21.40;;;4.10;99.90;;;;;;5053185;28;20163;-48
2023/03/03 11:13:20;;;;;;;46.92;20.42;;;4.20;99.90;;;;;;5053081;28;20253;-47
2023/03/03 11:16:03;;;;;;;52.00;22.65;;;4.20;99.90;;;;;;5053286;28;20233;-51
2023/03/03 11:18:50;;;;;;;46.10;22.55;;;4.20;99.90;;;;;;5053007;28;20167;-42
2023/03/03 11:21:31;;;;;;;47.35;21.50;;;4.30;99.90;;;;;;5053101;28;20563;-50
2023/03/03 11:24:15;;;;;;;57.60;22.92;;;4.20;99.90;;;;;;5053295;28;20229;-45
2023/03/03 11:27:01;;;;;;;55.42;24.05;;;4.30;99.90;;;;;;5053215;28;20206;-44
2023/03/03 11:29:38;;;;;;;51.50;23.70;;;4.20;99.90;;;;;;5053412;28;20236;-43
2023/03/03 11:32:22;;;;;;;49.28;22.77;;;4.30;99.90;;;;;;5052851;28;20175;-42
2023/03/03 11:35:24;;;;;;;47.42;22.40;;;4.40;99.90;;;;;;5052880;28;20210;-43
2023/03/03 11:38:08;;;;;;;53.47;24.48;;;4.30;99.90;;;;;;5053001;28;20220;-44
2023/03/03 11:40:52;;;;;;;53.85;23.63;;;4.40;99.90;;;;;;5052597;28;20194;-43
2023/03/03 11:43:33;;;;;;;50.75;22.65;;;4.40;99.90;;;;;;5052368;28;20266;-44
2023/03/03 11:46:23;;;;;;;48.90;22.15;;;4.40;99.90;;;;;;5052677;28;20174;-44
2023/03/03 11:49:03;;;;;;;45.95;21.08;;;4.40;99.90;;;;;;5051786;28;20296;-43
2023/03/03 11:52:00;;;;;;;51.72;22.83;;;4.60;99.90;;;;;;5052337;28;20645;-43
2023/03/03 11:54:31;;;;;;;48.28;22.95;;;5.20;99.90;;;;;;5052664;28;20187;-44
2023/03/03 11:57:12;;;;;;;54.80;23.63;;;4.80;99.90;;;;;;5052402;28;20171;-42
2023/03/03 11:59:40;;;;;;;47.58;22.92;;;4.90;99.90;;;;;;5052582;28;20158;-42
2023/03/03 12:02:29;;;;;;;48.75;23.98;;;5.00;99.90;;;;;;5052807;28;20179;-44
2023/03/03 12:05:10;;;;;;;51.92;24.35;;;4.90;99.90;;;;;;5052338;28;20215;-43
2023/03/03 12:08:05;;;;;;;51.50;22.25;;;4.90;99.90;;;;;;5051933;28;20291;-43
2023/03/03 12:10:34;;;;;;;48.00;22.40;;;4.70;99.90;;;;;;5040378;28;20183;-46
2023/03/03 12:13:28;;;;;;;54.13;23.55;;;4.80;99.90;;;;;;5032237;28;20577;-44
2023/03/03 12:16:38;;;;;;;48.90;22.42;;;4.90;99.90;;;;;;5031980;28;20632;-48
2023/03/03 12:19:33;;;;;;;54.78;24.67;;;5.00;99.90;;;;;;5009658;28;20699;-46
2023/03/03 12:22:06;;;;;;;54.65;26.15;;;5.00;99.90;;;;;;5009227;28;20164;-42
2023/03/03 12:24:55;;;;;;;55.75;28.35;;;5.10;99.90;;;;;;5025908;28;20186;-42
2023/03/03 12:27:33;;;;;;;47.90;23.08;;;5.00;99.90;;;;;;5031886;28;20270;-42
2023/03/03 12:30:09;;;;;;;53.65;22.83;;;4.90;99.90;;;;;;5050258;28;20501;-44
2023/03/03 12:33:11;;;;;;;40.05;19.58;;;5.00;99.90;;;;;;5051682;28;20657;-42
2023/03/03 12:35:57;;;;;;;49.60;22.88;;;4.80;99.90;;;;;;5052037;28;20272;-42
2023/03/03 12:38:47;;;;;;;45.95;21.02;;;4.80;99.90;;;;;;5051345;28;20170;-42
2023/03/03 12:41:34;;;;;;;47.05;24.00;;;4.80;99.90;;;;;;5051584;28;20174;-42
2023/03/03 12:44:02;;;;;;;47.28;23.60;;;4.90;99.90;;;;;;5051756;28;20253;-42
2023/03/03 12:46:53;;;;;;;46.25;22.35;;;5.00;99.90;;;;;;5051640;28;20208;-42
2023/03/03 12:49:19;;;;;;;40.95;19.80;;;5.00;99.90;;;;;;5051486;28;20170;-42
2023/03/03 12:52:19;;;;;;;42.83;20.27;;;5.10;99.90;;;;;;5051380;28;20245;-42
2023/03/03 12:54:48;;;;;;;45.55;21.73;;;5.00;99.90;;;;;;5049479;28;20232;-42
2023/03/03 12:57:39;;;;;;;44.53;20.92;;;4.90;99.90;;;;;;5051162;28;20516;-43
2023/03/03 13:00:23;;;;;;;50.13;21.10;;;5.10;99.90;;;;;;5051318;28;20216;-42
2023/03/03 13:03:16;;;;;;;40.92;20.10;;;5.20;99.90;;;;;;5051198;28;20177;-43
2023/03/03 13:05:54;;;;;;;43.28;19.13;;;5.10;99.90;;;;;;5049681;28;20222;-44